createdAt,value
2017-10-01T00:03:09.122Z,10.21
2017-10-01T00:13:09.127Z,9.93
2017-10-01T00:23:09.134Z,9.83
2017-10-01T00:33:11.157Z,9.68
2017-10-01T00:43:09.165Z,9.81
2017-10-01T00:53:09.189Z,9.85
2017-10-01T01:03:09.155Z,9.88
2017-10-01T01:13:09.173Z,9.79
2017-10-01T01:23:09.160Z,10.37
2017-10-01T01:33:09.179Z,10.81
2017-10-01T01:43:10.304Z,10.94
2017-10-01T01:53:09.203Z,11.13
2017-10-01T02:03:10.342Z,11.07
2017-10-01T02:13:09.556Z,11.25
2017-10-01T02:23:09.219Z,11.24
2017-10-01T02:33:09.250Z,11.11
2017-10-01T02:43:10.322Z,11.01
2017-10-01T02:53:13.622Z,10.95
2017-10-01T03:03:09.412Z,10.92
2017-10-01T03:13:09.815Z,11.07
2017-10-01T03:23:09.379Z,11.19
2017-10-01T03:33:13.845Z,11.1
2017-10-01T03:43:09.315Z,11.17
2017-10-01T03:53:10.420Z,11.27
2017-10-01T04:03:11.400Z,11.29
2017-10-01T04:13:10.455Z,11.1
2017-10-01T04:23:10.391Z,11.35
2017-10-01T04:33:10.461Z,11.09
2017-10-01T04:43:09.384Z,11.17
2017-10-01T04:53:09.515Z,11.09
2017-10-01T05:03:09.883Z,11.09
2017-10-01T05:13:09.872Z,10.95
2017-10-01T05:23:09.662Z,10.76
2017-10-01T05:33:09.606Z,10.89
2017-10-01T05:43:09.773Z,10.88
2017-10-01T05:53:09.460Z,11.02
2017-10-01T06:03:09.494Z,10.95
2017-10-01T06:13:09.478Z,10.77
2017-10-01T06:23:09.558Z,10.71
2017-10-01T06:33:09.530Z,10.68
2017-10-01T06:43:09.752Z,10.88
2017-10-01T06:53:09.871Z,10.86
2017-10-01T07:03:09.877Z,11.11
2017-10-01T07:33:11.502Z,11.72
2017-10-01T07:43:12.712Z,12.04
2017-10-01T07:53:11.506Z,12.44
2017-10-01T08:03:14.782Z,12.6
2017-10-01T08:13:09.619Z,12.54
2017-10-01T08:23:09.588Z,12.85
2017-10-01T08:33:09.558Z,13.17
2017-10-01T08:43:09.518Z,13.43
2017-10-01T08:53:09.540Z,13.67
2017-10-01T09:03:09.543Z,14.01
2017-10-01T09:13:10.138Z,14.37
2017-10-01T09:23:09.546Z,14.65
2017-10-01T09:33:09.515Z,14.87
2017-10-01T09:43:09.569Z,15.28
2017-10-01T09:53:09.512Z,15.64
2017-10-01T10:03:09.569Z,15.92
2017-10-01T10:13:09.552Z,16.23
2017-10-01T10:23:09.555Z,16.53
2017-10-01T10:33:09.616Z,16.81
2017-10-01T10:43:10.351Z,17.14
2017-10-01T10:53:09.864Z,17.38
2017-10-01T11:03:09.620Z,17.69
2017-10-01T11:13:09.770Z,17.95
2017-10-01T11:23:09.575Z,18.02
2017-10-01T11:33:09.534Z,18.43
2017-10-01T11:43:22.240Z,18.43
2017-10-01T11:53:16.034Z,18.64
2017-10-01T12:03:18.105Z,18.67
2017-10-01T12:13:47.586Z,18.83
2017-10-01T12:23:48.814Z,18.83
2017-10-01T12:33:49.801Z,19.1
2017-10-01T12:43:49.007Z,19.32
2017-10-01T12:53:50.685Z,19.57
2017-10-01T13:03:49.480Z,19.65
2017-10-01T13:13:50.433Z,19.58
2017-10-01T13:23:48.960Z,19.69
2017-10-01T13:33:47.819Z,19.73
2017-10-01T13:43:48.454Z,19.65
2017-10-01T13:53:51.155Z,19.84
2017-10-01T14:03:52.503Z,20.1
2017-10-01T14:13:48.046Z,20.02
2017-10-01T14:23:48.538Z,19.87
2017-10-01T14:33:47.853Z,19.51
2017-10-01T14:43:48.986Z,19.53
2017-10-01T14:53:46.374Z,19.63
2017-10-01T15:03:48.431Z,19.68
2017-10-01T15:13:47.503Z,19.38
2017-10-01T15:23:47.884Z,19.06
2017-10-01T15:33:47.713Z,18.62
2017-10-01T15:43:48.781Z,18.64
2017-10-01T15:53:47.463Z,18.33
2017-10-01T16:03:48.971Z,17.95
2017-10-01T16:13:53.004Z,17.63
2017-10-01T16:23:48.509Z,17.46
2017-10-01T16:33:48.290Z,17.26
2017-10-01T16:43:48.357Z,16.98
2017-10-01T16:53:48.592Z,16.9
2017-10-01T17:03:46.606Z,16.71
2017-10-01T17:13:46.665Z,16.62
2017-10-01T17:23:46.331Z,16.38
2017-10-01T17:33:46.753Z,16.09
2017-10-01T17:43:47.454Z,15.97
2017-10-01T17:53:47.282Z,15.86
2017-10-01T18:03:45.847Z,15.93
2017-10-01T18:13:46.190Z,15.92
2017-10-01T18:23:50.076Z,15.75
2017-10-01T18:33:46.623Z,15.76
2017-10-01T18:43:48.554Z,15.74
2017-10-01T18:53:51.888Z,15.56
2017-10-01T19:03:48.613Z,15.52
2017-10-01T19:13:51.196Z,15.59
2017-10-01T19:23:49.451Z,15.59
2017-10-01T19:33:47.729Z,15.49
2017-10-01T19:43:54.047Z,15.39
2017-10-01T19:53:52.754Z,15.41
2017-10-01T20:03:48.478Z,15.39
2017-10-01T20:13:50.132Z,15.36
2017-10-01T20:23:48.036Z,15.33
2017-10-01T20:33:48.214Z,15.24
2017-10-01T20:43:47.760Z,15.19
2017-10-01T20:53:49.880Z,15.08
2017-10-01T21:03:49.209Z,15.03
2017-10-01T21:13:47.553Z,15.01
2017-10-01T21:23:47.725Z,14.98
2017-10-01T21:33:47.832Z,14.99
2017-10-01T21:43:49.542Z,15.01
2017-10-01T21:53:48.168Z,14.84
2017-10-01T22:03:47.978Z,14.65
2017-10-01T22:13:46.947Z,14.6
2017-10-01T22:23:49.374Z,14.38
2017-10-01T22:33:48.170Z,14.47
2017-10-01T22:43:49.666Z,14.53
2017-10-01T22:53:47.828Z,14.56
2017-10-01T23:03:47.969Z,14.53
2017-10-01T23:13:47.878Z,14.6
2017-10-01T23:23:48.694Z,14.74
2017-10-01T23:33:51.212Z,14.83
2017-10-01T23:43:48.547Z,14.98
2017-10-01T23:53:47.700Z,15.09
